Lake Fork, ID (83635)

1:37 PM MST on December 10, 2016 (GMT -0700)
Spring Mountain Ranch | | Change Station

Elev 5097 ft 44.91 °N, 116.08 °W | Updated 6 seconds ago

Mostly Cloudy
Mostly Cloudy
36.9 °F
Feels Like 37 °F
N
0.0
Wind Variable Wind from South

Today
High -- | Low -- °F
--% Chance of Precip.
Yesterday
High -- | Low -- °F
Precip. -- in
Pressure 29.84 in
Visibility 10.0 miles
Clouds Few 1300 ft
Scattered Clouds 1800 ft
Mostly Cloudy 2600 ft
Windchill 37 °F
Dew Point 33 °F
Humidity 86%
Rainfall 0.00 in
Snow Depth Not available.
8:11 AM 5:03 PM
Waxing Gibbous, 86% visible
METAR KMYL 101951Z AUTO 27005KT 10SM FEW013 SCT018 BKN026 00/M02 A2979 RMK AO2 SLP104 T00001022
Pressure 29.84 in
Visibility 10.0 miles
Clouds Few 1300 ft
Scattered Clouds 1800 ft
Mostly Cloudy 2600 ft
Windchill 37 °F
Dew Point 33 °F
Humidity 86%
Rainfall 0.00 in
Snow Depth Not available.
8:11 AM 5:03 PM
Waxing Gibbous, 86% visible
METAR KMYL 101951Z AUTO 27005KT 10SM FEW013 SCT018 BKN026 00/M02 A2979 RMK AO2 SLP104 T00001022

10-Day Weather Forecast

Almanac

Astronomy

Dec. 10, 2016 Rise Set
Actual Time
Civil Twilight
Nautical Twilight
Astronomical Twilight
Moon
Length of Visible Light
Length of Day
Tomorrow will be .
, % of the Moon is Illuminated

Today's Extremes

State Highs State Lows

Community

WunderPhotos

Upload Photos

1,956,660 photos uploaded!

WunderBlog® & News

Nearby

Air Quality

  Air Quality AQ Index Pollutant
Not available.

Snow Depth

Station Depth Elevation

Earthquake Activity

City Distance Mag. Time & Date
Minimum magnitude displayed is 2.5.

Coastal Water Temperatures

Place Temperature

Stations

Nearby Weather Stations

Station Location Temp. Windchill Dew Point Humidity Wind Precip. Elev Updated Type
                   

Watches & Warnings

There are currently no watches in effect.